Cape Genesis — 3FBK8 — position and weather

sailwx.info

Track history (hours):
 
Tides and Currents Weather Stations Pressure Air Temp Water Temp Dewpoint Dewpoint Depression Visibility Wind Speed Wind Dir Waves Ship Positions

Cape Genesis

Last reported at 2018-Apr-28 12:48 UTC. Time now 2018-May-28 05:08 UTC.
Position S 28°49' E 032°03'.
Warning: this ship's position is 29 days out of date.

Length 292 m; draft 9.2 m.

Type: Cargo ship. MMSI: 373918000.

Date/timePositionNaut miles runAvg speedWind from/ knotsBaromVisibWave heightAir tempDewpointWater temp
2018-Apr-28 12:48S 28°49' E 032°03'0 0.0
2018-Apr-28 12:30S 28°49' E 032°03'0 0.0
2018-Apr-28 12:00S 28°49' E 032°03'0 0.0
2018-Apr-28 11:30S 28°49' E 032°03'0 0.0
2018-Apr-28 11:00S 28°49' E 032°03'0 0.0
2018-Apr-28 10:24S 28°49' E 032°03'0 0.0
2018-Apr-28 09:39S 28°49' E 032°03'0 0.0
2018-Apr-28 09:18S 28°49' E 032°03'0 0.0
2018-Apr-28 08:00S 28°49' E 032°03'4 0.4
2018-Apr-27 21:53S 28°50' E 032°08'1 2.2
2018-Apr-27 21:22S 28°51' E 032°08'0 0.6
2018-Apr-27 20:58S 28°51' E 032°08'2 4.6
2018-Apr-27 20:29S 28°53' E 032°10'30 3.4
2018-Apr-27 11:39S 28°44' E 032°43'413.2
2018-Apr-27 11:20S 28°44' E 032°48'22913.0
2018-Apr-26 17:39S 27°56' E 037°02'313.8
2018-Apr-26 17:27S 27°56' E 037°06'613.7
2018-Apr-26 17:00S 27°55' E 037°12'3913.8
2018-Apr-26 14:11S 27°47' E 037°55'  
Track history (hours):
 
Tides and Currents Weather Stations Pressure Air Temp Water Temp Dewpoint Dewpoint Depression Visibility Wind Speed Wind Dir Waves Ship Positions

Cape Genesis

Last reported at 2018-Apr-28 12:48 UTC. Time now 2018-May-28 05:08 UTC.
Position S 28°49' E 032°03'.
Warning: this ship's position is 29 days out of date.

Length 292 m; draft 9.2 m.

Type: Cargo ship. MMSI: 373918000.

Date/timePositionNaut miles runAvg speedWind from/ knotsBaromVisibWave heightAir tempDewpointWater temp
2018-Apr-28 12:48S 28°49' E 032°03'0 0.0
2018-Apr-28 12:30S 28°49' E 032°03'0 0.0
2018-Apr-28 12:00S 28°49' E 032°03'0 0.0
2018-Apr-28 11:30S 28°49' E 032°03'0 0.0
2018-Apr-28 11:00S 28°49' E 032°03'0 0.0
2018-Apr-28 10:24S 28°49' E 032°03'0 0.0
2018-Apr-28 09:39S 28°49' E 032°03'0 0.0
2018-Apr-28 09:18S 28°49' E 032°03'0 0.0
2018-Apr-28 08:00S 28°49' E 032°03'4 0.4
2018-Apr-27 21:53S 28°50' E 032°08'1 2.2
2018-Apr-27 21:22S 28°51' E 032°08'0 0.6
2018-Apr-27 20:58S 28°51' E 032°08'2 4.6
2018-Apr-27 20:29S 28°53' E 032°10'30 3.4
2018-Apr-27 11:39S 28°44' E 032°43'413.2
2018-Apr-27 11:20S 28°44' E 032°48'22913.0
2018-Apr-26 17:39S 27°56' E 037°02'313.8
2018-Apr-26 17:27S 27°56' E 037°06'613.7
2018-Apr-26 17:00S 27°55' E 037°12'3913.8
2018-Apr-26 14:11S 27°47' E 037°55'  

Dump ship's entire track history